sensor_id;sensor_type;location;lat;lon;timestamp;P1;durP1;ratioP1;P2;durP2;ratioP2
31872;SDS011;22407;42.820;23.374;2023-03-11T00:01:35;13.27;;;6.13;;
31872;SDS011;22407;42.820;23.374;2023-03-11T00:04:02;12.73;;;5.50;;
31872;SDS011;22407;42.820;23.374;2023-03-11T00:06:28;12.60;;;5.20;;
31872;SDS011;22407;42.820;23.374;2023-03-11T00:08:53;10.27;;;3.47;;
31872;SDS011;22407;42.820;23.374;2023-03-11T00:11:18;12.03;;;4.43;;
31872;SDS011;22407;42.820;23.374;2023-03-11T00:13:43;14.77;;;5.30;;
31872;SDS011;22407;42.820;23.374;2023-03-11T00:16:09;10.67;;;4.53;;
31872;SDS011;22407;42.820;23.374;2023-03-11T00:18:34;11.20;;;5.00;;
31872;SDS011;22407;42.820;23.374;2023-03-11T00:20:59;8.73;;;3.40;;
31872;SDS011;22407;42.820;23.374;2023-03-11T00:23:25;9.63;;;4.07;;
31872;SDS011;22407;42.820;23.374;2023-03-11T00:25:50;9.60;;;3.97;;
31872;SDS011;22407;42.820;23.374;2023-03-11T00:28:16;9.33;;;3.63;;
31872;SDS011;22407;42.820;23.374;2023-03-11T00:30:42;9.27;;;3.95;;
31872;SDS011;22407;42.820;23.374;2023-03-11T00:33:07;9.95;;;3.45;;
31872;SDS011;22407;42.820;23.374;2023-03-11T00:35:34;10.20;;;3.60;;
31872;SDS011;22407;42.820;23.374;2023-03-11T00:38:01;10.40;;;4.20;;
31872;SDS011;22407;42.820;23.374;2023-03-11T00:40:27;9.47;;;4.13;;
31872;SDS011;22407;42.820;23.374;2023-03-11T00:42:53;9.80;;;4.32;;
31872;SDS011;22407;42.820;23.374;2023-03-11T00:45:18;12.90;;;4.88;;
31872;SDS011;22407;42.820;23.374;2023-03-11T00:47:44;10.67;;;4.80;;
31872;SDS011;22407;42.820;23.374;2023-03-11T00:50:10;16.03;;;7.20;;
31872;SDS011;22407;42.820;23.374;2023-03-11T00:52:37;11.15;;;4.72;;
31872;SDS011;22407;42.820;23.374;2023-03-11T00:55:03;9.00;;;3.03;;
31872;SDS011;22407;42.820;23.374;2023-03-11T00:57:29;8.52;;;2.70;;
31872;SDS011;22407;42.820;23.374;2023-03-11T00:59:54;6.93;;;3.17;;
31872;SDS011;22407;42.820;23.374;2023-03-11T01:02:20;9.80;;;3.70;;
31872;SDS011;22407;42.820;23.374;2023-03-11T01:04:45;9.60;;;3.53;;
31872;SDS011;22407;42.820;23.374;2023-03-11T01:07:11;8.63;;;3.63;;
31872;SDS011;22407;42.820;23.374;2023-03-11T01:09:36;8.73;;;3.20;;
31872;SDS011;22407;42.820;23.374;2023-03-11T01:12:01;7.73;;;3.47;;
31872;SDS011;22407;42.820;23.374;2023-03-11T01:14:26;7.90;;;3.80;;
31872;SDS011;22407;42.820;23.374;2023-03-11T01:16:52;10.53;;;4.17;;
31872;SDS011;22407;42.820;23.374;2023-03-11T01:19:19;10.50;;;4.55;;
31872;SDS011;22407;42.820;23.374;2023-03-11T01:21:44;9.67;;;4.40;;
31872;SDS011;22407;42.820;23.374;2023-03-11T01:24:10;9.73;;;3.90;;
31872;SDS011;22407;42.820;23.374;2023-03-11T01:26:35;7.93;;;3.33;;
31872;SDS011;22407;42.820;23.374;2023-03-11T01:29:00;7.97;;;3.13;;
31872;SDS011;22407;42.820;23.374;2023-03-11T01:31:26;6.20;;;2.80;;
31872;SDS011;22407;42.820;23.374;2023-03-11T01:33:51;6.10;;;2.57;;
31872;SDS011;22407;42.820;23.374;2023-03-11T01:36:16;7.47;;;2.47;;
31872;SDS011;22407;42.820;23.374;2023-03-11T01:38:41;6.43;;;2.30;;
31872;SDS011;22407;42.820;23.374;2023-03-11T01:41:06;6.90;;;2.47;;
31872;SDS011;22407;42.820;23.374;2023-03-11T01:43:36;9.00;;;2.00;;
31872;SDS011;22407;42.820;23.374;2023-03-11T01:48:47;6.53;;;2.45;;
31872;SDS011;22407;42.820;23.374;2023-03-11T01:51:12;6.72;;;2.60;;
31872;SDS011;22407;42.820;23.374;2023-03-11T01:53:38;13.60;;;4.83;;
31872;SDS011;22407;42.820;23.374;2023-03-11T01:56:03;11.83;;;3.80;;
31872;SDS011;22407;42.820;23.374;2023-03-11T01:58:33;6.72;;;2.53;;
31872;SDS011;22407;42.820;23.374;2023-03-11T02:00:59;5.03;;;1.40;;
31872;SDS011;22407;42.820;23.374;2023-03-11T02:03:32;6.30;;;2.05;;
31872;SDS011;22407;42.820;23.374;2023-03-11T02:05:58;6.55;;;2.40;;
31872;SDS011;22407;42.820;23.374;2023-03-11T02:08:24;10.95;;;3.95;;
31872;SDS011;22407;42.820;23.374;2023-03-11T02:10:50;8.23;;;2.80;;
31872;SDS011;22407;42.820;23.374;2023-03-11T02:13:17;8.70;;;2.92;;
31872;SDS011;22407;42.820;23.374;2023-03-11T02:15:42;7.23;;;2.30;;
31872;SDS011;22407;42.820;23.374;2023-03-11T02:18:08;6.93;;;2.58;;
31872;SDS011;22407;42.820;23.374;2023-03-11T02:20:48;9.63;;;4.07;;
31872;SDS011;22407;42.820;23.374;2023-03-11T02:23:16;11.48;;;4.28;;
31872;SDS011;22407;42.820;23.374;2023-03-11T02:26:04;12.70;;;4.80;;
31872;SDS011;22407;42.820;23.374;2023-03-11T02:28:31;10.52;;;4.00;;
31872;SDS011;22407;42.820;23.374;2023-03-11T02:30:57;10.90;;;4.63;;
31872;SDS011;22407;42.820;23.374;2023-03-11T02:33:23;15.97;;;6.30;;
31872;SDS011;22407;42.820;23.374;2023-03-11T02:35:51;15.40;;;6.20;;
31872;SDS011;22407;42.820;23.374;2023-03-11T02:38:16;14.17;;;5.50;;
31872;SDS011;22407;42.820;23.374;2023-03-11T02:43:13;8.35;;;3.50;;
31872;SDS011;22407;42.820;23.374;2023-03-11T02:45:40;11.68;;;5.00;;
31872;SDS011;22407;42.820;23.374;2023-03-11T02:48:07;29.80;;;8.70;;
31872;SDS011;22407;42.820;23.374;2023-03-11T02:50:32;21.03;;;6.40;;
31872;SDS011;22407;42.820;23.374;2023-03-11T02:53:01;8.50;;;2.78;;
31872;SDS011;22407;42.820;23.374;2023-03-11T02:55:26;6.70;;;2.83;;
31872;SDS011;22407;42.820;23.374;2023-03-11T02:57:51;6.32;;;2.55;;
31872;SDS011;22407;42.820;23.374;2023-03-11T03:00:17;8.17;;;3.03;;
31872;SDS011;22407;42.820;23.374;2023-03-11T03:02:43;8.07;;;3.13;;
31872;SDS011;22407;42.820;23.374;2023-03-11T03:05:08;9.35;;;4.00;;
31872;SDS011;22407;42.820;23.374;2023-03-11T03:07:34;10.23;;;4.13;;
31872;SDS011;22407;42.820;23.374;2023-03-11T03:09:59;11.43;;;3.90;;
31872;SDS011;22407;42.820;23.374;2023-03-11T03:12:24;11.10;;;3.87;;
31872;SDS011;22407;42.820;23.374;2023-03-11T03:14:50;9.87;;;3.70;;
31872;SDS011;22407;42.820;23.374;2023-03-11T03:17:15;7.87;;;3.00;;
31872;SDS011;22407;42.820;23.374;2023-03-11T03:19:40;7.20;;;2.50;;
31872;SDS011;22407;42.820;23.374;2023-03-11T03:22:06;7.37;;;2.57;;
31872;SDS011;22407;42.820;23.374;2023-03-11T03:24:31;8.07;;;2.50;;
31872;SDS011;22407;42.820;23.374;2023-03-11T03:26:56;5.93;;;2.07;;
31872;SDS011;22407;42.820;23.374;2023-03-11T03:29:22;8.87;;;2.97;;
31872;SDS011;22407;42.820;23.374;2023-03-11T03:31:47;7.20;;;2.97;;
31872;SDS011;22407;42.820;23.374;2023-03-11T03:34:12;5.60;;;2.30;;
31872;SDS011;22407;42.820;23.374;2023-03-11T03:36:37;5.27;;;1.93;;
31872;SDS011;22407;42.820;23.374;2023-03-11T03:39:03;5.17;;;2.10;;
31872;SDS011;22407;42.820;23.374;2023-03-11T03:41:28;6.40;;;1.97;;
31872;SDS011;22407;42.820;23.374;2023-03-11T03:43:54;5.73;;;2.00;;
31872;SDS011;22407;42.820;23.374;2023-03-11T03:46:19;7.60;;;2.60;;
31872;SDS011;22407;42.820;23.374;2023-03-11T03:48:44;7.40;;;3.10;;
31872;SDS011;22407;42.820;23.374;2023-03-11T03:51:11;7.15;;;2.55;;
31872;SDS011;22407;42.820;23.374;2023-03-11T03:53:36;5.27;;;2.27;;
31872;SDS011;22407;42.820;23.374;2023-03-11T03:56:05;9.75;;;2.72;;
31872;SDS011;22407;42.820;23.374;2023-03-11T03:58:31;8.80;;;2.73;;
31872;SDS011;22407;42.820;23.374;2023-03-11T04:00:56;7.27;;;2.47;;
31872;SDS011;22407;42.820;23.374;2023-03-11T04:03:22;10.47;;;3.80;;
31872;SDS011;22407;42.820;23.374;2023-03-11T04:05:48;8.90;;;3.42;;
31872;SDS011;22407;42.820;23.374;2023-03-11T04:08:13;9.00;;;3.07;;
31872;SDS011;22407;42.820;23.374;2023-03-11T04:10:38;6.33;;;2.30;;
31872;SDS011;22407;42.820;23.374;2023-03-11T04:13:04;5.63;;;1.90;;
31872;SDS011;22407;42.820;23.374;2023-03-11T04:15:29;6.23;;;2.90;;
31872;SDS011;22407;42.820;23.374;2023-03-11T04:17:54;5.50;;;2.00;;
31872;SDS011;22407;42.820;23.374;2023-03-11T04:20:20;11.73;;;4.33;;
31872;SDS011;22407;42.820;23.374;2023-03-11T04:22:45;10.07;;;3.70;;
31872;SDS011;22407;42.820;23.374;2023-03-11T04:25:10;6.25;;;2.45;;
31872;SDS011;22407;42.820;23.374;2023-03-11T04:27:35;7.07;;;2.17;;
31872;SDS011;22407;42.820;23.374;2023-03-11T04:30:02;7.72;;;2.40;;
31872;SDS011;22407;42.820;23.374;2023-03-11T04:32:28;6.53;;;2.13;;
31872;SDS011;22407;42.820;23.374;2023-03-11T04:34:53;5.50;;;1.40;;
31872;SDS011;22407;42.820;23.374;2023-03-11T04:37:18;4.67;;;1.80;;
31872;SDS011;22407;42.820;23.374;2023-03-11T04:39:43;4.23;;;1.70;;
31872;SDS011;22407;42.820;23.374;2023-03-11T04:42:09;4.23;;;1.40;;
31872;SDS011;22407;42.820;23.374;2023-03-11T04:44:34;6.77;;;2.43;;
31872;SDS011;22407;42.820;23.374;2023-03-11T04:47:00;7.27;;;3.07;;
31872;SDS011;22407;42.820;23.374;2023-03-11T04:49:25;6.17;;;2.13;;
31872;SDS011;22407;42.820;23.374;2023-03-11T04:51:50;5.87;;;2.17;;
31872;SDS011;22407;42.820;23.374;2023-03-11T04:54:16;4.90;;;2.00;;
31872;SDS011;22407;42.820;23.374;2023-03-11T04:56:41;4.90;;;2.00;;
31872;SDS011;22407;42.820;23.374;2023-03-11T04:59:06;5.70;;;2.30;;
31872;SDS011;22407;42.820;23.374;2023-03-11T05:01:32;5.40;;;1.90;;
31872;SDS011;22407;42.820;23.374;2023-03-11T05:03:57;5.17;;;1.70;;
31872;SDS011;22407;42.820;23.374;2023-03-11T05:06:22;5.40;;;1.90;;
31872;SDS011;22407;42.820;23.374;2023-03-11T05:08:47;5.50;;;1.80;;
31872;SDS011;22407;42.820;23.374;2023-03-11T05:11:13;4.83;;;1.67;;
31872;SDS011;22407;42.820;23.374;2023-03-11T05:13:38;5.00;;;1.93;;
31872;SDS011;22407;42.820;23.374;2023-03-11T05:16:03;5.20;;;1.73;;
31872;SDS011;22407;42.820;23.374;2023-03-11T05:18:29;5.43;;;2.00;;
31872;SDS011;22407;42.820;23.374;2023-03-11T05:20:56;8.13;;;2.40;;
31872;SDS011;22407;42.820;23.374;2023-03-11T05:23:21;4.47;;;1.50;;
31872;SDS011;22407;42.820;23.374;2023-03-11T05:25:47;4.30;;;2.10;;
31872;SDS011;22407;42.820;23.374;2023-03-11T05:28:12;3.90;;;1.30;;
31872;SDS011;22407;42.820;23.374;2023-03-11T05:30:37;3.80;;;1.40;;
31872;SDS011;22407;42.820;23.374;2023-03-11T05:33:02;3.97;;;1.17;;
31872;SDS011;22407;42.820;23.374;2023-03-11T05:35:28;3.77;;;1.10;;
31872;SDS011;22407;42.820;23.374;2023-03-11T05:37:53;4.33;;;0.90;;
31872;SDS011;22407;42.820;23.374;2023-03-11T05:40:19;3.60;;;0.90;;
31872;SDS011;22407;42.820;23.374;2023-03-11T05:42:44;5.32;;;1.38;;
31872;SDS011;22407;42.820;23.374;2023-03-11T05:45:10;4.70;;;1.80;;
31872;SDS011;22407;42.820;23.374;2023-03-11T05:47:35;4.03;;;1.33;;
31872;SDS011;22407;42.820;23.374;2023-03-11T05:50:01;4.33;;;1.20;;
31872;SDS011;22407;42.820;23.374;2023-03-11T05:52:26;6.83;;;1.67;;
31872;SDS011;22407;42.820;23.374;2023-03-11T05:54:51;6.50;;;2.37;;
31872;SDS011;22407;42.820;23.374;2023-03-11T05:57:17;7.07;;;2.80;;
31872;SDS011;22407;42.820;23.374;2023-03-11T05:59:42;7.95;;;3.08;;
31872;SDS011;22407;42.820;23.374;2023-03-11T06:02:08;5.63;;;1.97;;
31872;SDS011;22407;42.820;23.374;2023-03-11T06:04:33;4.83;;;2.00;;
31872;SDS011;22407;42.820;23.374;2023-03-11T06:06:58;6.83;;;2.57;;
31872;SDS011;22407;42.820;23.374;2023-03-11T06:09:23;8.03;;;2.73;;
31872;SDS011;22407;42.820;23.374;2023-03-11T06:11:49;8.10;;;3.03;;
31872;SDS011;22407;42.820;23.374;2023-03-11T06:14:14;9.03;;;3.30;;
31872;SDS011;22407;42.820;23.374;2023-03-11T06:16:39;6.70;;;2.55;;
31872;SDS011;22407;42.820;23.374;2023-03-11T06:19:05;5.30;;;1.73;;
31872;SDS011;22407;42.820;23.374;2023-03-11T06:21:30;4.90;;;1.33;;
31872;SDS011;22407;42.820;23.374;2023-03-11T06:23:56;5.10;;;1.80;;
31872;SDS011;22407;42.820;23.374;2023-03-11T06:26:21;3.93;;;1.30;;
31872;SDS011;22407;42.820;23.374;2023-03-11T06:28:47;5.65;;;1.92;;
31872;SDS011;22407;42.820;23.374;2023-03-11T06:31:19;4.90;;;1.80;;
31872;SDS011;22407;42.820;23.374;2023-03-11T06:33:45;5.25;;;2.13;;
31872;SDS011;22407;42.820;23.374;2023-03-11T06:36:14;11.00;;;5.53;;
31872;SDS011;22407;42.820;23.374;2023-03-11T06:38:40;10.32;;;5.35;;
31872;SDS011;22407;42.820;23.374;2023-03-11T06:41:05;7.25;;;3.75;;
31872;SDS011;22407;42.820;23.374;2023-03-11T06:43:31;6.73;;;3.03;;
31872;SDS011;22407;42.820;23.374;2023-03-11T06:45:57;5.28;;;2.20;;
31872;SDS011;22407;42.820;23.374;2023-03-11T06:48:22;5.80;;;2.50;;
31872;SDS011;22407;42.820;23.374;2023-03-11T06:50:58;6.10;;;2.80;;
31872;SDS011;22407;42.820;23.374;2023-03-11T06:53:24;6.45;;;2.70;;
31872;SDS011;22407;42.820;23.374;2023-03-11T06:55:59;6.22;;;2.67;;
31872;SDS011;22407;42.820;23.374;2023-03-11T06:58:24;5.73;;;2.20;;
31872;SDS011;22407;42.820;23.374;2023-03-11T07:00:50;5.70;;;2.00;;
31872;SDS011;22407;42.820;23.374;2023-03-11T07:03:15;6.10;;;2.17;;
31872;SDS011;22407;42.820;23.374;2023-03-11T07:05:40;6.33;;;2.07;;
31872;SDS011;22407;42.820;23.374;2023-03-11T07:08:05;5.87;;;2.03;;
31872;SDS011;22407;42.820;23.374;2023-03-11T07:10:31;5.13;;;1.40;;
31872;SDS011;22407;42.820;23.374;2023-03-11T07:12:56;7.80;;;2.97;;
31872;SDS011;22407;42.820;23.374;2023-03-11T07:15:21;5.90;;;2.30;;
31872;SDS011;22407;42.820;23.374;2023-03-11T07:17:46;5.30;;;2.30;;
31872;SDS011;22407;42.820;23.374;2023-03-11T07:20:12;5.00;;;1.90;;
31872;SDS011;22407;42.820;23.374;2023-03-11T07:22:37;6.57;;;1.90;;
31872;SDS011;22407;42.820;23.374;2023-03-11T07:25:02;5.77;;;2.23;;
31872;SDS011;22407;42.820;23.374;2023-03-11T07:27:28;5.77;;;2.40;;
31872;SDS011;22407;42.820;23.374;2023-03-11T07:29:53;6.20;;;2.70;;
31872;SDS011;22407;42.820;23.374;2023-03-11T07:32:18;5.73;;;2.40;;
31872;SDS011;22407;42.820;23.374;2023-03-11T07:34:44;5.37;;;1.80;;
31872;SDS011;22407;42.820;23.374;2023-03-11T07:37:09;7.27;;;2.50;;
31872;SDS011;22407;42.820;23.374;2023-03-11T07:39:34;8.37;;;2.73;;
31872;SDS011;22407;42.820;23.374;2023-03-11T07:41:59;6.15;;;2.53;;
31872;SDS011;22407;42.820;23.374;2023-03-11T07:44:25;8.83;;;2.70;;
31872;SDS011;22407;42.820;23.374;2023-03-11T07:46:50;8.70;;;3.27;;
31872;SDS011;22407;42.820;23.374;2023-03-11T07:49:15;8.30;;;3.13;;
31872;SDS011;22407;42.820;23.374;2023-03-11T07:51:41;7.63;;;2.57;;
31872;SDS011;22407;42.820;23.374;2023-03-11T07:54:08;6.03;;;2.45;;
31872;SDS011;22407;42.820;23.374;2023-03-11T07:56:34;6.50;;;2.17;;
31872;SDS011;22407;42.820;23.374;2023-03-11T07:59:00;8.60;;;2.13;;
31872;SDS011;22407;42.820;23.374;2023-03-11T08:01:26;4.85;;;1.70;;
31872;SDS011;22407;42.820;23.374;2023-03-11T08:03:54;4.63;;;1.67;;
31872;SDS011;22407;42.820;23.374;2023-03-11T08:06:23;6.43;;;2.17;;
31872;SDS011;22407;42.820;23.374;2023-03-11T08:08:48;5.38;;;1.63;;
31872;SDS011;22407;42.820;23.374;2023-03-11T08:11:14;4.00;;;1.60;;
31872;SDS011;22407;42.820;23.374;2023-03-11T08:13:40;4.78;;;1.60;;
31872;SDS011;22407;42.820;23.374;2023-03-11T08:16:06;4.32;;;1.80;;
31872;SDS011;22407;42.820;23.374;2023-03-11T08:18:32;4.72;;;2.10;;
31872;SDS011;22407;42.820;23.374;2023-03-11T08:20:58;4.33;;;1.40;;
31872;SDS011;22407;42.820;23.374;2023-03-11T08:23:23;5.00;;;1.60;;
31872;SDS011;22407;42.820;23.374;2023-03-11T08:25:48;5.33;;;1.60;;
31872;SDS011;22407;42.820;23.374;2023-03-11T08:28:14;4.78;;;1.85;;
31872;SDS011;22407;42.820;23.374;2023-03-11T08:30:40;6.50;;;1.70;;
31872;SDS011;22407;42.820;23.374;2023-03-11T08:33:05;4.70;;;1.70;;
31872;SDS011;22407;42.820;23.374;2023-03-11T08:35:31;6.07;;;2.20;;
31872;SDS011;22407;42.820;23.374;2023-03-11T08:37:56;5.38;;;1.65;;
31872;SDS011;22407;42.820;23.374;2023-03-11T08:40:21;5.60;;;1.57;;
31872;SDS011;22407;42.820;23.374;2023-03-11T08:42:47;4.20;;;1.43;;
31872;SDS011;22407;42.820;23.374;2023-03-11T08:45:12;5.00;;;1.83;;
31872;SDS011;22407;42.820;23.374;2023-03-11T08:47:37;4.38;;;1.60;;
31872;SDS011;22407;42.820;23.374;2023-03-11T08:50:07;9.73;;;2.67;;
31872;SDS011;22407;42.820;23.374;2023-03-11T08:52:33;9.17;;;3.03;;
31872;SDS011;22407;42.820;23.374;2023-03-11T08:55:02;7.40;;;2.50;;
31872;SDS011;22407;42.820;23.374;2023-03-11T08:57:29;5.18;;;2.22;;
31872;SDS011;22407;42.820;23.374;2023-03-11T08:59:57;6.23;;;2.03;;
31872;SDS011;22407;42.820;23.374;2023-03-11T09:02:23;4.20;;;1.70;;
31872;SDS011;22407;42.820;23.374;2023-03-11T09:04:48;4.55;;;1.90;;
31872;SDS011;22407;42.820;23.374;2023-03-11T09:07:14;4.50;;;2.00;;
31872;SDS011;22407;42.820;23.374;2023-03-11T09:09:41;4.60;;;1.97;;
31872;SDS011;22407;42.820;23.374;2023-03-11T09:12:07;4.30;;;1.95;;
31872;SDS011;22407;42.820;23.374;2023-03-11T09:14:32;5.87;;;1.60;;
31872;SDS011;22407;42.820;23.374;2023-03-11T09:16:57;5.93;;;2.03;;
31872;SDS011;22407;42.820;23.374;2023-03-11T09:19:23;5.20;;;1.67;;
31872;SDS011;22407;42.820;23.374;2023-03-11T09:21:49;4.47;;;1.45;;
31872;SDS011;22407;42.820;23.374;2023-03-11T09:24:14;4.43;;;1.60;;
31872;SDS011;22407;42.820;23.374;2023-03-11T09:26:39;6.50;;;2.53;;
31872;SDS011;22407;42.820;23.374;2023-03-11T09:29:04;4.20;;;1.47;;
31872;SDS011;22407;42.820;23.374;2023-03-11T09:31:30;4.50;;;1.50;;
31872;SDS011;22407;42.820;23.374;2023-03-11T09:33:55;6.20;;;2.27;;
31872;SDS011;22407;42.820;23.374;2023-03-11T09:36:21;5.23;;;2.03;;
31872;SDS011;22407;42.820;23.374;2023-03-11T09:38:46;5.18;;;2.22;;
31872;SDS011;22407;42.820;23.374;2023-03-11T09:48:43;5.43;;;2.40;;
31872;SDS011;22407;42.820;23.374;2023-03-11T09:51:16;4.60;;;1.75;;
31872;SDS011;22407;42.820;23.374;2023-03-11T09:53:45;5.35;;;2.33;;
31872;SDS011;22407;42.820;23.374;2023-03-11T09:56:12;5.17;;;2.20;;
31872;SDS011;22407;42.820;23.374;2023-03-11T09:58:43;4.63;;;2.10;;
31872;SDS011;22407;42.820;23.374;2023-03-11T10:03:40;7.55;;;3.40;;
31872;SDS011;22407;42.820;23.374;2023-03-11T10:06:11;6.50;;;2.80;;
31872;SDS011;22407;42.820;23.374;2023-03-11T10:08:39;7.10;;;2.93;;
31872;SDS011;22407;42.820;23.374;2023-03-11T10:13:37;5.38;;;2.38;;
31872;SDS011;22407;42.820;23.374;2023-03-11T10:18:49;5.88;;;2.65;;
31872;SDS011;22407;42.820;23.374;2023-03-11T10:26:47;5.15;;;2.53;;
31872;SDS011;22407;42.820;23.374;2023-03-11T10:29:26;5.32;;;2.33;;
31872;SDS011;22407;42.820;23.374;2023-03-11T10:36:57;4.93;;;2.17;;
31872;SDS011;22407;42.820;23.374;2023-03-11T10:39:25;5.97;;;2.25;;
31872;SDS011;22407;42.820;23.374;2023-03-11T10:41:53;8.45;;;2.83;;
31872;SDS011;22407;42.820;23.374;2023-03-11T10:44:28;6.90;;;2.70;;
31872;SDS011;22407;42.820;23.374;2023-03-11T10:46:56;5.77;;;2.83;;
31872;SDS011;22407;42.820;23.374;2023-03-11T10:49:21;5.53;;;2.43;;
31872;SDS011;22407;42.820;23.374;2023-03-11T10:51:48;4.90;;;2.10;;
31872;SDS011;22407;42.820;23.374;2023-03-11T10:54:21;4.93;;;1.90;;
31872;SDS011;22407;42.820;23.374;2023-03-11T10:56:49;6.57;;;2.00;;
31872;SDS011;22407;42.820;23.374;2023-03-11T11:01:57;6.45;;;1.88;;
31872;SDS011;22407;42.820;23.374;2023-03-11T11:04:32;5.60;;;2.22;;
31872;SDS011;22407;42.820;23.374;2023-03-11T11:06:59;4.70;;;1.80;;
31872;SDS011;22407;42.820;23.374;2023-03-11T11:09:43;4.60;;;1.50;;
31872;SDS011;22407;42.820;23.374;2023-03-11T11:12:18;7.07;;;2.80;;
31872;SDS011;22407;42.820;23.374;2023-03-11T11:19:42;5.53;;;1.90;;
31872;SDS011;22407;42.820;23.374;2023-03-11T11:22:10;5.00;;;2.28;;
31872;SDS011;22407;42.820;23.374;2023-03-11T11:24:44;5.13;;;2.08;;
31872;SDS011;22407;42.820;23.374;2023-03-11T11:29:35;5.43;;;2.87;;
31872;SDS011;22407;42.820;23.374;2023-03-11T11:32:24;6.17;;;2.67;;
31872;SDS011;22407;42.820;23.374;2023-03-11T11:35:20;6.05;;;2.65;;
31872;SDS011;22407;42.820;23.374;2023-03-11T11:37:42;7.43;;;2.92;;
31872;SDS011;22407;42.820;23.374;2023-03-11T11:42:47;5.40;;;2.37;;
31872;SDS011;22407;42.820;23.374;2023-03-11T11:47:47;5.90;;;2.88;;
31872;SDS011;22407;42.820;23.374;2023-03-11T11:53:18;4.47;;;2.15;;
31872;SDS011;22407;42.820;23.374;2023-03-11T11:55:46;4.57;;;2.20;;
31872;SDS011;22407;42.820;23.374;2023-03-11T11:58:12;4.80;;;1.40;;
31872;SDS011;22407;42.820;23.374;2023-03-11T12:00:46;5.67;;;2.20;;
31872;SDS011;22407;42.820;23.374;2023-03-11T12:05:54;6.38;;;2.08;;
31872;SDS011;22407;42.820;23.374;2023-03-11T12:11:00;5.43;;;2.15;;
31872;SDS011;22407;42.820;23.374;2023-03-11T12:21:05;5.18;;;1.92;;
31872;SDS011;22407;42.820;23.374;2023-03-11T12:23:41;7.05;;;2.00;;
31872;SDS011;22407;42.820;23.374;2023-03-11T12:28:46;7.40;;;3.10;;
31872;SDS011;22407;42.820;23.374;2023-03-11T12:31:13;5.15;;;1.48;;
31872;SDS011;22407;42.820;23.374;2023-03-11T12:36:03;5.60;;;1.77;;
31872;SDS011;22407;42.820;23.374;2023-03-11T12:46:06;5.63;;;1.97;;
31872;SDS011;22407;42.820;23.374;2023-03-11T12:48:41;5.10;;;1.90;;
31872;SDS011;22407;42.820;23.374;2023-03-11T12:51:59;4.80;;;1.70;;
31872;SDS011;22407;42.820;23.374;2023-03-11T12:53:53;7.30;;;2.45;;
31872;SDS011;22407;42.820;23.374;2023-03-11T12:56:28;4.57;;;1.60;;
31872;SDS011;22407;42.820;23.374;2023-03-11T13:09:29;6.17;;;2.00;;
31872;SDS011;22407;42.820;23.374;2023-03-11T13:11:54;5.82;;;1.83;;
31872;SDS011;22407;42.820;23.374;2023-03-11T13:16:45;5.30;;;1.90;;
31872;SDS011;22407;42.820;23.374;2023-03-11T13:21:56;4.47;;;1.92;;
31872;SDS011;22407;42.820;23.374;2023-03-11T13:39:31;8.13;;;3.97;;
31872;SDS011;22407;42.820;23.374;2023-03-11T13:42:00;7.10;;;3.05;;
31872;SDS011;22407;42.820;23.374;2023-03-11T13:44:29;9.65;;;3.75;;
31872;SDS011;22407;42.820;23.374;2023-03-11T13:46:59;6.03;;;2.72;;
31872;SDS011;22407;42.820;23.374;2023-03-11T13:51:54;8.52;;;2.97;;
31872;SDS011;22407;42.820;23.374;2023-03-11T13:57:04;9.57;;;3.03;;
31872;SDS011;22407;42.820;23.374;2023-03-11T13:59:31;9.57;;;3.80;;
31872;SDS011;22407;42.820;23.374;2023-03-11T14:04:32;11.03;;;4.30;;
31872;SDS011;22407;42.820;23.374;2023-03-11T14:06:58;9.18;;;3.58;;
31872;SDS011;22407;42.820;23.374;2023-03-11T14:09:24;9.67;;;4.23;;
31872;SDS011;22407;42.820;23.374;2023-03-11T14:11:51;12.60;;;5.25;;
31872;SDS011;22407;42.820;23.374;2023-03-11T14:14:26;10.00;;;4.22;;
31872;SDS011;22407;42.820;23.374;2023-03-11T14:16:54;11.53;;;4.67;;
31872;SDS011;22407;42.820;23.374;2023-03-11T14:19:20;11.43;;;4.38;;
31872;SDS011;22407;42.820;23.374;2023-03-11T14:21:46;6.33;;;2.77;;
31872;SDS011;22407;42.820;23.374;2023-03-11T14:24:29;7.15;;;2.95;;
31872;SDS011;22407;42.820;23.374;2023-03-11T14:26:55;6.95;;;3.00;;
31872;SDS011;22407;42.820;23.374;2023-03-11T14:31:50;7.57;;;3.05;;
31872;SDS011;22407;42.820;23.374;2023-03-11T14:34:19;7.03;;;3.30;;
31872;SDS011;22407;42.820;23.374;2023-03-11T14:41:50;9.45;;;3.78;;
31872;SDS011;22407;42.820;23.374;2023-03-11T14:44:16;9.05;;;4.30;;
31872;SDS011;22407;42.820;23.374;2023-03-11T14:46:42;13.33;;;5.53;;
31872;SDS011;22407;42.820;23.374;2023-03-11T14:49:11;17.90;;;6.13;;
31872;SDS011;22407;42.820;23.374;2023-03-11T14:51:37;15.67;;;6.07;;
31872;SDS011;22407;42.820;23.374;2023-03-11T14:54:07;16.05;;;5.13;;
31872;SDS011;22407;42.820;23.374;2023-03-11T14:56:43;12.90;;;4.77;;
31872;SDS011;22407;42.820;23.374;2023-03-11T14:59:12;11.13;;;4.25;;
31872;SDS011;22407;42.820;23.374;2023-03-11T15:01:40;9.13;;;4.00;;
31872;SDS011;22407;42.820;23.374;2023-03-11T15:06:34;8.63;;;2.78;;
31872;SDS011;22407;42.820;23.374;2023-03-11T15:11:27;8.03;;;3.63;;
31872;SDS011;22407;42.820;23.374;2023-03-11T15:13:53;10.10;;;4.00;;
31872;SDS011;22407;42.820;23.374;2023-03-11T15:16:20;7.53;;;3.90;;
31872;SDS011;22407;42.820;23.374;2023-03-11T15:18:46;8.80;;;3.95;;
31872;SDS011;22407;42.820;23.374;2023-03-11T15:21:13;9.67;;;4.20;;
31872;SDS011;22407;42.820;23.374;2023-03-11T15:23:39;11.07;;;4.45;;
31872;SDS011;22407;42.820;23.374;2023-03-11T15:26:15;11.18;;;4.80;;
31872;SDS011;22407;42.820;23.374;2023-03-11T15:28:42;9.48;;;4.65;;
31872;SDS011;22407;42.820;23.374;2023-03-11T15:31:14;12.87;;;6.10;;
31872;SDS011;22407;42.820;23.374;2023-03-11T15:33:40;15.20;;;4.97;;
31872;SDS011;22407;42.820;23.374;2023-03-11T15:36:24;10.38;;;3.88;;
31872;SDS011;22407;42.820;23.374;2023-03-11T15:39:05;11.40;;;4.63;;
31872;SDS011;22407;42.820;23.374;2023-03-11T15:41:30;12.67;;;4.97;;
31872;SDS011;22407;42.820;23.374;2023-03-11T15:43:55;11.80;;;4.57;;
31872;SDS011;22407;42.820;23.374;2023-03-11T15:46:25;13.35;;;5.28;;
31872;SDS011;22407;42.820;23.374;2023-03-11T15:48:51;11.67;;;5.60;;
31872;SDS011;22407;42.820;23.374;2023-03-11T15:51:17;12.17;;;5.50;;
31872;SDS011;22407;42.820;23.374;2023-03-11T15:53:43;12.10;;;4.82;;
31872;SDS011;22407;42.820;23.374;2023-03-11T15:56:09;10.83;;;4.37;;
31872;SDS011;22407;42.820;23.374;2023-03-11T15:58:36;13.57;;;5.65;;
31872;SDS011;22407;42.820;23.374;2023-03-11T16:01:02;17.08;;;7.85;;
31872;SDS011;22407;42.820;23.374;2023-03-11T16:03:28;19.20;;;9.80;;
31872;SDS011;22407;42.820;23.374;2023-03-11T16:05:53;24.97;;;13.10;;
31872;SDS011;22407;42.820;23.374;2023-03-11T16:08:18;22.57;;;10.87;;
31872;SDS011;22407;42.820;23.374;2023-03-11T16:10:44;18.05;;;8.75;;
31872;SDS011;22407;42.820;23.374;2023-03-11T16:13:12;15.33;;;6.90;;
31872;SDS011;22407;42.820;23.374;2023-03-11T16:15:38;14.27;;;6.85;;
31872;SDS011;22407;42.820;23.374;2023-03-11T16:18:04;15.57;;;7.10;;
31872;SDS011;22407;42.820;23.374;2023-03-11T16:20:40;19.70;;;8.30;;
31872;SDS011;22407;42.820;23.374;2023-03-11T16:23:06;15.37;;;7.03;;
31872;SDS011;22407;42.820;23.374;2023-03-11T16:25:37;13.45;;;6.95;;
31872;SDS011;22407;42.820;23.374;2023-03-11T16:28:03;13.35;;;6.25;;
31872;SDS011;22407;42.820;23.374;2023-03-11T16:30:29;13.57;;;7.20;;
31872;SDS011;22407;42.820;23.374;2023-03-11T16:32:55;11.50;;;5.33;;
31872;SDS011;22407;42.820;23.374;2023-03-11T16:35:20;11.87;;;6.60;;